EDDLLPPD

Guest
Details From EDDL - Duesseldorf
To LPPD - Ponta Delgada
Flight Number -
Tags Generated
Created
Modified
Stats Distance 1,592 nm / 2,949 km
Max Altitude 0 ft / 0 m
Waypoints 5
Social Downloads 5
Likes 0
Share VATSIM

Download

Looking for another format? Having issues loading an existing format? Contact us
Advertisement - Login to hide

Notes

Generated

Route

EDDL VEULE ARE16 PD LPPD

ID Type Via Altitude Latitude Longitude Leg Dist Tot Dist Heading (true) Name
O EDDL APT - 0 ft / 0 m 51.28373˚ 6.74873˚ - 0 nm - -
VEULE FIX - 0 ft / 0 m 49.85667˚ 0.62000˚ 248 nm 248 nm 252° / 248° -
ARE16 FIX - 0 ft / 0 m 48.46947˚ -3.94619˚ 197 nm 446 nm 247° / 243° -
PD NDB - 0 ft / 0 m 37.73500˚ -25.67500˚ 1143 nm 1590 nm 244° / 229° PONTA DELGADA NDB
O LPPD APT - 0 ft / 0 m 37.74624˚ -25.71090˚ 1 nm 1592 nm 292° / 292° -

Altitude Profile

Advertisement - Login to hide

Weather


0- 5 10 15 20 25 30 35+ Temperature / ° C

Clouds and Precipitation
Forecast for 2018-05-27 18:00 UTC. Updated 3 hours ago

Ground ~20,000 ft ~40,000 ft Winds

EDDL

Details ICAO EDDL (DUS)
Name Duesseldorf
Region Germany - Civil
Timezone Europe/Berlin (UTC+2.0)
Stats Elevation 146 ft / 45 m (AMSL)
Location 51.289419° 6.766637°
Runways 2
Magnetic Variation 1.868° E

METAR

EDDL 271950Z 36008KT CAVOK 20/16 Q1017 NOSIG

Decode

TAF

TAF EDDL 271700Z 2718/2824 02008KT 9999 FEW040 BECMG 2718/2721 12004KT TEMPO 2718/2722 SHRA BKN040CB PROB40 TEMPO 2718/2720 4500 TSRA BECMG 2809/2812 01006KT

Decode

Departure Runways

ID Width Length Bearing (true) Bearing (mag) Surface Threshold Offset Overrun Length
05L 148 ft / 45 m 8,895 ft / 2,711 m 52.72° 50.85° Concrete 994 ft / 303 m 906 ft / 276 m
05R 148 ft / 45 m 9,858 ft / 3,005 m 52.68° 50.81° Concrete 984 ft / 300 m 659 ft / 201 m
23L 148 ft / 45 m 9,858 ft / 3,005 m 232.71° 230.84° Concrete 984 ft / 300 m 702 ft / 214 m
23R 148 ft / 45 m 8,895 ft / 2,711 m 232.75° 230.88° Concrete 971 ft / 296 m 928 ft / 283 m

LPPD

Details ICAO LPPD (PDL)
Name PONTA DELGADA
Region Portugal
Timezone Atlantic/Azores (UTC+0.0)
Stats Elevation 259 ft / 79 m (AMSL)
Location 37.742078° -25.697736°
Runways 1
Magnetic Variation 8.298° W

METAR

LPPD 272000Z 26004KT 220V290 9999 FEW025 BKN030 17/11 Q1028

Decode

TAF

TAF LPPD 271700Z 2718/2818 VRB05KT 9999 FEW025 TEMPO 2718/2818 SCT022 BKN035 BECMG 2809/2812 19010KT

Decode

Destination Runways

ID Width Length Bearing (true) Bearing (mag) Surface Threshold Offset Overrun Length
12 148 ft / 45 m 8,179 ft / 2,493 m 111.77° 120.07° Asphalt 0 ft / 0 m 375 ft / 114 m
30 148 ft / 45 m 8,179 ft / 2,493 m 291.79° 300.09° Asphalt 787 ft / 240 m 0 ft / 0 m

Approach Navaids

Runway Type Ident Frequency Range Bearing (true) Bearing (mag) Slope Elevation
30 Localiser NL 109.50 MHz 18 nm / 33 km 291.78° 300.08° - 259 ft / 79 m (AMSL)
30 Glidescope NL 109.50 MHz 10 nm / 19 km 291.78° 300.08° 3.00° 259 ft / 79 m (AMSL)
30 DME NL 109.50 MHz 18 nm / 33 km - - - 259 ft / 79 m (AMSL)

Popular Alternatives